LFRQ/UIP METAR and TAF weather

Enter ICAO airport designator
Station Type Date Time Source
LFRQ METAR 2019/12/07 07:30 UTC NOAA

LFRQ 070730Z AUTO 25002KT 9999 -RA OVC029 09/09 Q1019 TEMPO 1200 BR BKN003


Station Type Date Time Source
LFRQ Decoded METAR 2019/12/07 07:30 UTC NOAA

Quimper, France (LFRQ) 47-58N 004-10W 94M
Dec 07, 2019 - 02:30 AM EST / 2019.12.07 0730 UTC
Wind: from the WSW (250 degrees) at 2 MPH (2 KT):0
Visibility: greater than 7 mile(s):0
Sky conditions: overcast
Weather: light rain
Temperature: 48 F (9 C)
Dew Point: 48 F (9 C)
Relative Humidity: 100%
Pressure (altimeter): 30.09 in. Hg (1019 hPa)
ob: LFRQ 070730Z AUTO 25002KT 9999 -RA OVC029 09/09 Q1019 TEMPO 1200 BR BKN003
cycle: 7

Station Type Date Time Source
LFRQ TAF 2019/12/07 06:21 UTC NOAA

TAF TAF LFRQ 070500Z 0706/0806 24005KT 9999 SCT005 BKN040
TEMPO 0706/0710 BKN003
BECMG 0721/0723 22015G25KT 2000 RADZ OVC003
TEMPO 0800/0804 22018G35KT
FM080500 28016G30KT 9999 BKN010

Example: see airport list